sensor_id;sensor_type;location;lat;lon;timestamp;P1;durP1;ratioP1;P2;durP2;ratioP2
74926;SDS011;63488;48.092;-1.640;2023-12-29T00:01:16;10.02;;;2.25;;
74926;SDS011;63488;48.092;-1.640;2023-12-29T00:03:42;10.90;;;2.30;;
74926;SDS011;63488;48.092;-1.640;2023-12-29T00:06:07;9.70;;;2.30;;
74926;SDS011;63488;48.092;-1.640;2023-12-29T00:08:32;9.90;;;2.30;;
74926;SDS011;63488;48.092;-1.640;2023-12-29T00:10:59;10.55;;;2.40;;
74926;SDS011;63488;48.092;-1.640;2023-12-29T00:13:24;11.57;;;2.10;;
74926;SDS011;63488;48.092;-1.640;2023-12-29T00:15:53;12.45;;;2.50;;
74926;SDS011;63488;48.092;-1.640;2023-12-29T00:18:18;11.40;;;2.22;;
74926;SDS011;63488;48.092;-1.640;2023-12-29T00:20:44;11.98;;;2.20;;
74926;SDS011;63488;48.092;-1.640;2023-12-29T00:23:09;6.35;;;1.90;;
74926;SDS011;63488;48.092;-1.640;2023-12-29T00:25:38;10.27;;;1.80;;
74926;SDS011;63488;48.092;-1.640;2023-12-29T00:28:04;10.82;;;1.85;;
74926;SDS011;63488;48.092;-1.640;2023-12-29T00:30:29;9.93;;;1.92;;
74926;SDS011;63488;48.092;-1.640;2023-12-29T00:32:57;10.00;;;1.98;;
74926;SDS011;63488;48.092;-1.640;2023-12-29T00:35:22;13.13;;;1.98;;
74926;SDS011;63488;48.092;-1.640;2023-12-29T00:37:49;11.68;;;2.13;;
74926;SDS011;63488;48.092;-1.640;2023-12-29T00:40:14;13.80;;;2.28;;
74926;SDS011;63488;48.092;-1.640;2023-12-29T00:42:40;14.10;;;1.80;;
74926;SDS011;63488;48.092;-1.640;2023-12-29T00:45:05;10.48;;;1.88;;
74926;SDS011;63488;48.092;-1.640;2023-12-29T00:47:31;8.25;;;1.48;;
74926;SDS011;63488;48.092;-1.640;2023-12-29T00:49:56;12.77;;;2.35;;
74926;SDS011;63488;48.092;-1.640;2023-12-29T00:52:21;12.43;;;2.10;;
74926;SDS011;63488;48.092;-1.640;2023-12-29T00:54:47;12.43;;;2.10;;
74926;SDS011;63488;48.092;-1.640;2023-12-29T00:57:12;11.95;;;1.85;;
74926;SDS011;63488;48.092;-1.640;2023-12-29T00:59:38;11.93;;;2.30;;
74926;SDS011;63488;48.092;-1.640;2023-12-29T01:02:07;12.20;;;1.92;;
74926;SDS011;63488;48.092;-1.640;2023-12-29T01:04:33;12.68;;;2.05;;
74926;SDS011;63488;48.092;-1.640;2023-12-29T01:06:58;12.05;;;2.08;;
74926;SDS011;63488;48.092;-1.640;2023-12-29T01:09:23;11.73;;;1.63;;
74926;SDS011;63488;48.092;-1.640;2023-12-29T01:11:49;8.90;;;2.05;;
74926;SDS011;63488;48.092;-1.640;2023-12-29T01:14:14;13.27;;;1.90;;
74926;SDS011;63488;48.092;-1.640;2023-12-29T01:16:39;11.80;;;2.33;;
74926;SDS011;63488;48.092;-1.640;2023-12-29T01:19:05;12.02;;;2.15;;
74926;SDS011;63488;48.092;-1.640;2023-12-29T01:21:30;10.98;;;2.00;;
74926;SDS011;63488;48.092;-1.640;2023-12-29T01:23:59;12.82;;;2.20;;
74926;SDS011;63488;48.092;-1.640;2023-12-29T01:26:24;8.52;;;1.98;;
74926;SDS011;63488;48.092;-1.640;2023-12-29T01:28:49;10.52;;;1.88;;
74926;SDS011;63488;48.092;-1.640;2023-12-29T01:31:15;18.08;;;2.65;;
74926;SDS011;63488;48.092;-1.640;2023-12-29T01:33:40;9.63;;;1.88;;
74926;SDS011;63488;48.092;-1.640;2023-12-29T01:36:05;13.15;;;1.98;;
74926;SDS011;63488;48.092;-1.640;2023-12-29T01:38:31;10.95;;;2.13;;
74926;SDS011;63488;48.092;-1.640;2023-12-29T01:40:56;10.98;;;2.05;;
74926;SDS011;63488;48.092;-1.640;2023-12-29T01:43:21;11.50;;;2.15;;
74926;SDS011;63488;48.092;-1.640;2023-12-29T01:45:47;9.77;;;2.05;;
74926;SDS011;63488;48.092;-1.640;2023-12-29T01:48:12;16.23;;;2.28;;
74926;SDS011;63488;48.092;-1.640;2023-12-29T01:50:38;12.98;;;2.60;;
74926;SDS011;63488;48.092;-1.640;2023-12-29T01:53:03;14.95;;;1.98;;
74926;SDS011;63488;48.092;-1.640;2023-12-29T01:55:30;13.05;;;2.45;;
74926;SDS011;63488;48.092;-1.640;2023-12-29T01:57:56;11.55;;;2.10;;
74926;SDS011;63488;48.092;-1.640;2023-12-29T02:00:21;14.02;;;2.50;;
74926;SDS011;63488;48.092;-1.640;2023-12-29T02:02:47;12.07;;;2.60;;
74926;SDS011;63488;48.092;-1.640;2023-12-29T02:05:13;10.13;;;1.98;;
74926;SDS011;63488;48.092;-1.640;2023-12-29T02:07:38;8.50;;;1.80;;
74926;SDS011;63488;48.092;-1.640;2023-12-29T02:10:05;12.93;;;2.00;;
74926;SDS011;63488;48.092;-1.640;2023-12-29T02:12:30;13.65;;;2.65;;
74926;SDS011;63488;48.092;-1.640;2023-12-29T02:14:55;12.95;;;2.67;;
74926;SDS011;63488;48.092;-1.640;2023-12-29T02:17:27;13.52;;;2.50;;
74926;SDS011;63488;48.092;-1.640;2023-12-29T02:19:55;14.18;;;2.22;;
74926;SDS011;63488;48.092;-1.640;2023-12-29T02:22:20;12.88;;;2.78;;
74926;SDS011;63488;48.092;-1.640;2023-12-29T02:24:46;11.85;;;2.17;;
74926;SDS011;63488;48.092;-1.640;2023-12-29T02:27:16;13.52;;;2.25;;
74926;SDS011;63488;48.092;-1.640;2023-12-29T02:29:44;15.35;;;2.47;;
74926;SDS011;63488;48.092;-1.640;2023-12-29T02:32:13;12.10;;;2.20;;
74926;SDS011;63488;48.092;-1.640;2023-12-29T02:34:39;13.25;;;2.47;;
74926;SDS011;63488;48.092;-1.640;2023-12-29T02:37:05;11.70;;;2.00;;
74926;SDS011;63488;48.092;-1.640;2023-12-29T02:39:31;10.43;;;2.17;;
74926;SDS011;63488;48.092;-1.640;2023-12-29T02:41:57;15.43;;;2.40;;
74926;SDS011;63488;48.092;-1.640;2023-12-29T02:44:22;9.40;;;1.83;;
74926;SDS011;63488;48.092;-1.640;2023-12-29T02:46:47;15.00;;;2.35;;
74926;SDS011;63488;48.092;-1.640;2023-12-29T02:49:13;14.30;;;2.25;;
74926;SDS011;63488;48.092;-1.640;2023-12-29T02:51:38;17.40;;;2.42;;
74926;SDS011;63488;48.092;-1.640;2023-12-29T02:54:05;12.07;;;1.80;;
74926;SDS011;63488;48.092;-1.640;2023-12-29T02:56:31;12.43;;;1.90;;
74926;SDS011;63488;48.092;-1.640;2023-12-29T02:58:56;11.88;;;1.88;;
74926;SDS011;63488;48.092;-1.640;2023-12-29T03:01:21;10.40;;;1.92;;
74926;SDS011;63488;48.092;-1.640;2023-12-29T03:03:46;9.90;;;1.80;;
74926;SDS011;63488;48.092;-1.640;2023-12-29T03:06:12;15.50;;;2.20;;
74926;SDS011;63488;48.092;-1.640;2023-12-29T03:08:37;15.07;;;2.28;;
74926;SDS011;63488;48.092;-1.640;2023-12-29T03:11:03;13.05;;;2.33;;
74926;SDS011;63488;48.092;-1.640;2023-12-29T03:13:28;12.02;;;1.67;;
74926;SDS011;63488;48.092;-1.640;2023-12-29T03:15:53;10.50;;;1.77;;
74926;SDS011;63488;48.092;-1.640;2023-12-29T03:18:18;10.60;;;1.73;;
74926;SDS011;63488;48.092;-1.640;2023-12-29T03:20:44;12.35;;;1.90;;
74926;SDS011;63488;48.092;-1.640;2023-12-29T03:23:09;10.27;;;1.83;;
74926;SDS011;63488;48.092;-1.640;2023-12-29T03:25:34;11.32;;;1.67;;
74926;SDS011;63488;48.092;-1.640;2023-12-29T03:28:00;14.20;;;2.17;;
74926;SDS011;63488;48.092;-1.640;2023-12-29T03:30:25;10.32;;;2.13;;
74926;SDS011;63488;48.092;-1.640;2023-12-29T03:32:50;13.88;;;2.28;;
74926;SDS011;63488;48.092;-1.640;2023-12-29T03:35:16;14.73;;;1.73;;
74926;SDS011;63488;48.092;-1.640;2023-12-29T03:37:42;10.98;;;1.80;;
74926;SDS011;63488;48.092;-1.640;2023-12-29T03:40:07;10.30;;;1.80;;
74926;SDS011;63488;48.092;-1.640;2023-12-29T03:42:33;10.75;;;1.90;;
74926;SDS011;63488;48.092;-1.640;2023-12-29T03:44:58;11.70;;;1.85;;
74926;SDS011;63488;48.092;-1.640;2023-12-29T03:47:23;11.73;;;2.13;;
74926;SDS011;63488;48.092;-1.640;2023-12-29T03:49:49;10.35;;;1.92;;
74926;SDS011;63488;48.092;-1.640;2023-12-29T03:52:14;10.77;;;1.70;;
74926;SDS011;63488;48.092;-1.640;2023-12-29T03:54:39;8.57;;;2.00;;
74926;SDS011;63488;48.092;-1.640;2023-12-29T03:57:05;11.52;;;2.08;;
74926;SDS011;63488;48.092;-1.640;2023-12-29T03:59:30;8.60;;;1.73;;
74926;SDS011;63488;48.092;-1.640;2023-12-29T04:01:55;12.65;;;2.30;;
74926;SDS011;63488;48.092;-1.640;2023-12-29T04:04:21;15.90;;;2.38;;
74926;SDS011;63488;48.092;-1.640;2023-12-29T04:06:46;12.32;;;2.22;;
74926;SDS011;63488;48.092;-1.640;2023-12-29T04:09:11;15.18;;;2.33;;
74926;SDS011;63488;48.092;-1.640;2023-12-29T04:11:37;17.77;;;2.00;;
74926;SDS011;63488;48.092;-1.640;2023-12-29T04:14:02;10.20;;;1.60;;
74926;SDS011;63488;48.092;-1.640;2023-12-29T04:16:27;10.30;;;2.03;;
74926;SDS011;63488;48.092;-1.640;2023-12-29T04:18:52;12.02;;;1.85;;
74926;SDS011;63488;48.092;-1.640;2023-12-29T04:21:18;13.32;;;2.17;;
74926;SDS011;63488;48.092;-1.640;2023-12-29T04:23:43;11.77;;;1.85;;
74926;SDS011;63488;48.092;-1.640;2023-12-29T04:26:08;12.95;;;1.98;;
74926;SDS011;63488;48.092;-1.640;2023-12-29T04:28:34;14.27;;;2.20;;
74926;SDS011;63488;48.092;-1.640;2023-12-29T04:30:59;11.63;;;2.00;;
74926;SDS011;63488;48.092;-1.640;2023-12-29T04:33:24;12.07;;;1.92;;
74926;SDS011;63488;48.092;-1.640;2023-12-29T04:35:50;13.38;;;1.92;;
74926;SDS011;63488;48.092;-1.640;2023-12-29T04:38:15;11.75;;;1.95;;
74926;SDS011;63488;48.092;-1.640;2023-12-29T04:40:43;8.30;;;2.00;;
74926;SDS011;63488;48.092;-1.640;2023-12-29T04:43:08;18.50;;;2.40;;
74926;SDS011;63488;48.092;-1.640;2023-12-29T04:45:33;12.48;;;2.00;;
74926;SDS011;63488;48.092;-1.640;2023-12-29T04:47:59;14.25;;;1.88;;
74926;SDS011;63488;48.092;-1.640;2023-12-29T04:50:24;13.80;;;2.17;;
74926;SDS011;63488;48.092;-1.640;2023-12-29T04:52:49;10.07;;;1.80;;
74926;SDS011;63488;48.092;-1.640;2023-12-29T04:55:15;13.07;;;2.67;;
74926;SDS011;63488;48.092;-1.640;2023-12-29T04:57:40;14.55;;;2.10;;
74926;SDS011;63488;48.092;-1.640;2023-12-29T05:00:06;14.02;;;1.90;;
74926;SDS011;63488;48.092;-1.640;2023-12-29T05:02:31;12.65;;;2.15;;
74926;SDS011;63488;48.092;-1.640;2023-12-29T05:04:56;10.40;;;1.95;;
74926;SDS011;63488;48.092;-1.640;2023-12-29T05:07:23;10.52;;;1.95;;
74926;SDS011;63488;48.092;-1.640;2023-12-29T05:09:48;11.55;;;2.00;;
74926;SDS011;63488;48.092;-1.640;2023-12-29T05:12:14;12.23;;;1.83;;
74926;SDS011;63488;48.092;-1.640;2023-12-29T05:14:40;13.80;;;1.77;;
74926;SDS011;63488;48.092;-1.640;2023-12-29T05:17:05;10.25;;;1.83;;
74926;SDS011;63488;48.092;-1.640;2023-12-29T05:19:31;11.95;;;2.10;;
74926;SDS011;63488;48.092;-1.640;2023-12-29T05:21:57;12.48;;;2.13;;
74926;SDS011;63488;48.092;-1.640;2023-12-29T05:24:22;15.98;;;2.30;;
74926;SDS011;63488;48.092;-1.640;2023-12-29T05:26:47;10.15;;;1.90;;
74926;SDS011;63488;48.092;-1.640;2023-12-29T05:29:13;13.35;;;2.10;;
74926;SDS011;63488;48.092;-1.640;2023-12-29T05:31:38;11.70;;;2.40;;
74926;SDS011;63488;48.092;-1.640;2023-12-29T05:34:03;16.35;;;2.53;;
74926;SDS011;63488;48.092;-1.640;2023-12-29T05:36:29;13.30;;;1.83;;
74926;SDS011;63488;48.092;-1.640;2023-12-29T05:38:55;15.45;;;2.22;;
74926;SDS011;63488;48.092;-1.640;2023-12-29T05:41:20;10.98;;;2.40;;
74926;SDS011;63488;48.092;-1.640;2023-12-29T05:43:46;14.70;;;2.70;;
74926;SDS011;63488;48.092;-1.640;2023-12-29T05:46:11;13.88;;;1.88;;
74926;SDS011;63488;48.092;-1.640;2023-12-29T05:48:37;14.32;;;2.05;;
74926;SDS011;63488;48.092;-1.640;2023-12-29T05:51:09;13.57;;;2.60;;
74926;SDS011;63488;48.092;-1.640;2023-12-29T05:53:34;17.70;;;1.92;;
74926;SDS011;63488;48.092;-1.640;2023-12-29T05:56:00;10.68;;;2.25;;
74926;SDS011;63488;48.092;-1.640;2023-12-29T05:58:25;13.57;;;2.50;;
74926;SDS011;63488;48.092;-1.640;2023-12-29T06:00:51;11.00;;;2.13;;
74926;SDS011;63488;48.092;-1.640;2023-12-29T06:03:16;16.77;;;3.00;;
74926;SDS011;63488;48.092;-1.640;2023-12-29T06:05:42;11.95;;;1.90;;
74926;SDS011;63488;48.092;-1.640;2023-12-29T06:08:07;11.20;;;2.10;;
74926;SDS011;63488;48.092;-1.640;2023-12-29T06:10:33;12.65;;;1.98;;
74926;SDS011;63488;48.092;-1.640;2023-12-29T06:12:58;18.77;;;2.50;;
74926;SDS011;63488;48.092;-1.640;2023-12-29T06:15:23;10.05;;;1.90;;
74926;SDS011;63488;48.092;-1.640;2023-12-29T06:17:49;15.52;;;2.28;;
74926;SDS011;63488;48.092;-1.640;2023-12-29T06:20:14;11.25;;;2.08;;
74926;SDS011;63488;48.092;-1.640;2023-12-29T06:22:40;11.13;;;2.15;;
74926;SDS011;63488;48.092;-1.640;2023-12-29T06:25:09;11.40;;;1.92;;
74926;SDS011;63488;48.092;-1.640;2023-12-29T06:27:36;11.07;;;1.88;;
74926;SDS011;63488;48.092;-1.640;2023-12-29T06:30:04;9.23;;;1.90;;
74926;SDS011;63488;48.092;-1.640;2023-12-29T06:32:30;12.27;;;2.10;;
74926;SDS011;63488;48.092;-1.640;2023-12-29T06:34:56;13.63;;;2.35;;
74926;SDS011;63488;48.092;-1.640;2023-12-29T06:37:21;13.45;;;2.00;;
74926;SDS011;63488;48.092;-1.640;2023-12-29T06:39:46;12.45;;;2.13;;
74926;SDS011;63488;48.092;-1.640;2023-12-29T06:42:12;18.02;;;3.42;;
74926;SDS011;63488;48.092;-1.640;2023-12-29T06:44:37;12.32;;;2.65;;
74926;SDS011;63488;48.092;-1.640;2023-12-29T06:47:03;12.93;;;2.15;;
74926;SDS011;63488;48.092;-1.640;2023-12-29T06:49:30;11.57;;;1.88;;
74926;SDS011;63488;48.092;-1.640;2023-12-29T06:51:56;9.88;;;2.03;;
74926;SDS011;63488;48.092;-1.640;2023-12-29T06:54:22;9.45;;;1.83;;
74926;SDS011;63488;48.092;-1.640;2023-12-29T06:56:47;13.45;;;2.67;;
74926;SDS011;63488;48.092;-1.640;2023-12-29T06:59:13;11.27;;;2.58;;
74926;SDS011;63488;48.092;-1.640;2023-12-29T07:01:39;9.40;;;2.20;;
74926;SDS011;63488;48.092;-1.640;2023-12-29T07:04:05;12.90;;;2.08;;
74926;SDS011;63488;48.092;-1.640;2023-12-29T07:06:31;10.57;;;2.00;;
74926;SDS011;63488;48.092;-1.640;2023-12-29T07:08:56;13.07;;;2.10;;
74926;SDS011;63488;48.092;-1.640;2023-12-29T07:11:21;14.00;;;2.60;;
74926;SDS011;63488;48.092;-1.640;2023-12-29T07:13:47;15.52;;;1.98;;
74926;SDS011;63488;48.092;-1.640;2023-12-29T07:16:12;15.15;;;2.25;;
74926;SDS011;63488;48.092;-1.640;2023-12-29T07:18:37;16.63;;;2.70;;
74926;SDS011;63488;48.092;-1.640;2023-12-29T07:21:03;13.38;;;2.28;;
74926;SDS011;63488;48.092;-1.640;2023-12-29T07:23:28;14.20;;;2.50;;
74926;SDS011;63488;48.092;-1.640;2023-12-29T07:25:54;10.73;;;1.80;;
74926;SDS011;63488;48.092;-1.640;2023-12-29T07:28:19;11.60;;;1.75;;
74926;SDS011;63488;48.092;-1.640;2023-12-29T07:30:44;14.10;;;2.30;;
74926;SDS011;63488;48.092;-1.640;2023-12-29T07:33:10;14.35;;;2.28;;
74926;SDS011;63488;48.092;-1.640;2023-12-29T07:35:35;15.07;;;2.78;;
74926;SDS011;63488;48.092;-1.640;2023-12-29T07:38:00;15.55;;;3.00;;
74926;SDS011;63488;48.092;-1.640;2023-12-29T07:40:26;15.88;;;3.22;;
74926;SDS011;63488;48.092;-1.640;2023-12-29T07:42:51;12.05;;;2.90;;
74926;SDS011;63488;48.092;-1.640;2023-12-29T07:45:17;15.73;;;3.35;;
74926;SDS011;63488;48.092;-1.640;2023-12-29T07:47:43;15.40;;;3.20;;
74926;SDS011;63488;48.092;-1.640;2023-12-29T07:50:08;14.38;;;4.03;;
74926;SDS011;63488;48.092;-1.640;2023-12-29T07:52:34;12.15;;;3.10;;
74926;SDS011;63488;48.092;-1.640;2023-12-29T07:54:59;15.75;;;4.07;;
74926;SDS011;63488;48.092;-1.640;2023-12-29T07:57:24;18.08;;;3.60;;
74926;SDS011;63488;48.092;-1.640;2023-12-29T07:59:50;12.52;;;2.58;;
74926;SDS011;63488;48.092;-1.640;2023-12-29T08:02:15;13.07;;;3.05;;
74926;SDS011;63488;48.092;-1.640;2023-12-29T08:04:41;12.45;;;2.58;;
74926;SDS011;63488;48.092;-1.640;2023-12-29T08:07:07;9.98;;;2.60;;
74926;SDS011;63488;48.092;-1.640;2023-12-29T08:09:32;12.23;;;2.50;;
74926;SDS011;63488;48.092;-1.640;2023-12-29T08:11:57;12.10;;;2.45;;
74926;SDS011;63488;48.092;-1.640;2023-12-29T08:14:23;11.18;;;2.20;;
74926;SDS011;63488;48.092;-1.640;2023-12-29T08:16:48;13.32;;;2.45;;
74926;SDS011;63488;48.092;-1.640;2023-12-29T08:19:13;13.30;;;2.25;;
74926;SDS011;63488;48.092;-1.640;2023-12-29T08:21:40;10.13;;;2.08;;
74926;SDS011;63488;48.092;-1.640;2023-12-29T08:24:05;9.57;;;1.80;;
74926;SDS011;63488;48.092;-1.640;2023-12-29T08:26:31;10.50;;;1.75;;
74926;SDS011;63488;48.092;-1.640;2023-12-29T08:28:56;12.90;;;2.10;;
74926;SDS011;63488;48.092;-1.640;2023-12-29T08:31:21;11.07;;;2.30;;
74926;SDS011;63488;48.092;-1.640;2023-12-29T08:33:48;12.07;;;2.35;;
74926;SDS011;63488;48.092;-1.640;2023-12-29T08:36:13;9.77;;;1.95;;
74926;SDS011;63488;48.092;-1.640;2023-12-29T08:38:38;10.55;;;2.17;;
74926;SDS011;63488;48.092;-1.640;2023-12-29T08:41:04;9.82;;;2.08;;
74926;SDS011;63488;48.092;-1.640;2023-12-29T08:43:30;9.68;;;1.90;;
74926;SDS011;63488;48.092;-1.640;2023-12-29T08:45:55;11.00;;;1.95;;
74926;SDS011;63488;48.092;-1.640;2023-12-29T08:48:21;8.52;;;1.60;;
74926;SDS011;63488;48.092;-1.640;2023-12-29T08:50:46;13.68;;;2.03;;
74926;SDS011;63488;48.092;-1.640;2023-12-29T08:53:11;12.95;;;2.55;;
74926;SDS011;63488;48.092;-1.640;2023-12-29T08:55:37;11.18;;;1.95;;
74926;SDS011;63488;48.092;-1.640;2023-12-29T08:58:02;10.35;;;1.90;;
74926;SDS011;63488;48.092;-1.640;2023-12-29T09:00:28;14.50;;;2.47;;
74926;SDS011;63488;48.092;-1.640;2023-12-29T09:02:55;8.65;;;1.65;;
74926;SDS011;63488;48.092;-1.640;2023-12-29T09:05:20;11.07;;;1.90;;
74926;SDS011;63488;48.092;-1.640;2023-12-29T09:07:46;9.32;;;1.80;;
74926;SDS011;63488;48.092;-1.640;2023-12-29T09:10:11;8.60;;;1.40;;
74926;SDS011;63488;48.092;-1.640;2023-12-29T09:12:38;11.73;;;2.00;;
74926;SDS011;63488;48.092;-1.640;2023-12-29T09:15:04;9.35;;;1.85;;
74926;SDS011;63488;48.092;-1.640;2023-12-29T09:17:29;11.77;;;1.95;;
74926;SDS011;63488;48.092;-1.640;2023-12-29T09:19:55;9.60;;;1.80;;
74926;SDS011;63488;48.092;-1.640;2023-12-29T09:22:20;9.38;;;1.80;;
74926;SDS011;63488;48.092;-1.640;2023-12-29T09:24:45;10.48;;;1.92;;
74926;SDS011;63488;48.092;-1.640;2023-12-29T09:27:11;8.65;;;1.85;;
74926;SDS011;63488;48.092;-1.640;2023-12-29T09:29:36;9.93;;;1.63;;
74926;SDS011;63488;48.092;-1.640;2023-12-29T09:32:02;9.40;;;2.00;;
74926;SDS011;63488;48.092;-1.640;2023-12-29T09:34:27;10.35;;;1.95;;
74926;SDS011;63488;48.092;-1.640;2023-12-29T09:36:53;10.05;;;2.00;;
74926;SDS011;63488;48.092;-1.640;2023-12-29T09:39:18;13.20;;;2.58;;
74926;SDS011;63488;48.092;-1.640;2023-12-29T09:41:45;9.85;;;1.80;;
74926;SDS011;63488;48.092;-1.640;2023-12-29T09:44:13;9.32;;;1.42;;
74926;SDS011;63488;48.092;-1.640;2023-12-29T09:46:38;9.35;;;1.95;;
74926;SDS011;63488;48.092;-1.640;2023-12-29T09:49:04;7.88;;;1.52;;
74926;SDS011;63488;48.092;-1.640;2023-12-29T09:51:30;8.88;;;1.55;;
74926;SDS011;63488;48.092;-1.640;2023-12-29T09:53:56;13.07;;;2.25;;
74926;SDS011;63488;48.092;-1.640;2023-12-29T09:56:24;9.38;;;1.60;;
74926;SDS011;63488;48.092;-1.640;2023-12-29T09:58:49;9.43;;;1.48;;
74926;SDS011;63488;48.092;-1.640;2023-12-29T10:01:17;9.57;;;1.75;;
74926;SDS011;63488;48.092;-1.640;2023-12-29T10:03:43;8.10;;;1.83;;
74926;SDS011;63488;48.092;-1.640;2023-12-29T10:06:08;12.68;;;1.90;;
74926;SDS011;63488;48.092;-1.640;2023-12-29T10:08:34;9.75;;;1.73;;
74926;SDS011;63488;48.092;-1.640;2023-12-29T10:11:01;9.00;;;1.77;;
74926;SDS011;63488;48.092;-1.640;2023-12-29T10:13:28;10.63;;;1.70;;
74926;SDS011;63488;48.092;-1.640;2023-12-29T10:16:04;11.65;;;2.08;;
74926;SDS011;63488;48.092;-1.640;2023-12-29T10:18:42;9.30;;;1.80;;
74926;SDS011;63488;48.092;-1.640;2023-12-29T10:21:23;10.40;;;1.90;;
74926;SDS011;63488;48.092;-1.640;2023-12-29T10:26:14;12.63;;;1.90;;
74926;SDS011;63488;48.092;-1.640;2023-12-29T10:28:40;12.10;;;2.53;;
74926;SDS011;63488;48.092;-1.640;2023-12-29T10:31:05;9.60;;;1.88;;
74926;SDS011;63488;48.092;-1.640;2023-12-29T10:33:31;9.23;;;2.13;;
74926;SDS011;63488;48.092;-1.640;2023-12-29T10:35:58;12.65;;;3.30;;
74926;SDS011;63488;48.092;-1.640;2023-12-29T10:38:28;9.43;;;1.88;;
74926;SDS011;63488;48.092;-1.640;2023-12-29T10:40:53;10.68;;;2.10;;
74926;SDS011;63488;48.092;-1.640;2023-12-29T10:43:24;13.35;;;2.03;;
74926;SDS011;63488;48.092;-1.640;2023-12-29T10:45:53;10.52;;;2.05;;
74926;SDS011;63488;48.092;-1.640;2023-12-29T10:48:30;12.27;;;2.05;;
74926;SDS011;63488;48.092;-1.640;2023-12-29T10:50:56;13.13;;;2.22;;
74926;SDS011;63488;48.092;-1.640;2023-12-29T10:53:21;12.90;;;2.00;;
74926;SDS011;63488;48.092;-1.640;2023-12-29T10:55:47;11.60;;;2.17;;
74926;SDS011;63488;48.092;-1.640;2023-12-29T10:58:14;15.13;;;2.45;;
74926;SDS011;63488;48.092;-1.640;2023-12-29T11:00:40;10.43;;;1.80;;
74926;SDS011;63488;48.092;-1.640;2023-12-29T11:03:06;14.07;;;2.38;;
74926;SDS011;63488;48.092;-1.640;2023-12-29T11:05:32;9.80;;;2.28;;
74926;SDS011;63488;48.092;-1.640;2023-12-29T11:07:58;15.10;;;2.13;;
74926;SDS011;63488;48.092;-1.640;2023-12-29T11:10:24;11.73;;;2.13;;
74926;SDS011;63488;48.092;-1.640;2023-12-29T11:12:50;9.07;;;1.92;;
74926;SDS011;63488;48.092;-1.640;2023-12-29T11:15:17;9.27;;;1.70;;
74926;SDS011;63488;48.092;-1.640;2023-12-29T11:17:42;12.10;;;1.65;;
74926;SDS011;63488;48.092;-1.640;2023-12-29T11:20:17;13.40;;;2.10;;
74926;SDS011;63488;48.092;-1.640;2023-12-29T11:22:43;9.48;;;1.80;;
74926;SDS011;63488;48.092;-1.640;2023-12-29T11:25:09;9.25;;;2.22;;
74926;SDS011;63488;48.092;-1.640;2023-12-29T11:27:34;11.38;;;2.13;;
74926;SDS011;63488;48.092;-1.640;2023-12-29T11:30:00;10.43;;;1.80;;
74926;SDS011;63488;48.092;-1.640;2023-12-29T11:33:12;8.38;;;1.90;;
74926;SDS011;63488;48.092;-1.640;2023-12-29T11:35:33;11.95;;;2.20;;
74926;SDS011;63488;48.092;-1.640;2023-12-29T11:40:44;12.23;;;1.38;;
74926;SDS011;63488;48.092;-1.640;2023-12-29T11:43:14;9.13;;;1.83;;
74926;SDS011;63488;48.092;-1.640;2023-12-29T11:45:41;10.70;;;2.13;;
74926;SDS011;63488;48.092;-1.640;2023-12-29T11:48:06;6.15;;;1.30;;
74926;SDS011;63488;48.092;-1.640;2023-12-29T11:50:32;9.57;;;1.75;;
74926;SDS011;63488;48.092;-1.640;2023-12-29T11:52:58;8.80;;;1.60;;
74926;SDS011;63488;48.092;-1.640;2023-12-29T11:55:33;10.63;;;2.50;;
74926;SDS011;63488;48.092;-1.640;2023-12-29T11:58:00;10.85;;;1.77;;
74926;SDS011;63488;48.092;-1.640;2023-12-29T12:03:14;10.23;;;1.98;;
74926;SDS011;63488;48.092;-1.640;2023-12-29T12:05:48;9.40;;;1.85;;
74926;SDS011;63488;48.092;-1.640;2023-12-29T12:08:47;7.45;;;1.50;;
74926;SDS011;63488;48.092;-1.640;2023-12-29T12:13:49;12.77;;;2.25;;
74926;SDS011;63488;48.092;-1.640;2023-12-29T12:18:58;12.98;;;2.13;;
74926;SDS011;63488;48.092;-1.640;2023-12-29T12:21:23;8.57;;;1.88;;
74926;SDS011;63488;48.092;-1.640;2023-12-29T12:23:50;6.95;;;1.70;;
74926;SDS011;63488;48.092;-1.640;2023-12-29T12:26:16;7.47;;;1.60;;
74926;SDS011;63488;48.092;-1.640;2023-12-29T12:28:42;9.52;;;1.80;;
74926;SDS011;63488;48.092;-1.640;2023-12-29T12:31:10;9.80;;;1.70;;
74926;SDS011;63488;48.092;-1.640;2023-12-29T12:33:37;10.90;;;1.67;;
74926;SDS011;63488;48.092;-1.640;2023-12-29T12:36:03;8.13;;;1.48;;
74926;SDS011;63488;48.092;-1.640;2023-12-29T12:38:28;9.07;;;1.75;;
74926;SDS011;63488;48.092;-1.640;2023-12-29T12:40:55;10.38;;;1.70;;
74926;SDS011;63488;48.092;-1.640;2023-12-29T12:43:21;10.52;;;1.60;;
74926;SDS011;63488;48.092;-1.640;2023-12-29T12:45:53;10.43;;;1.88;;
74926;SDS011;63488;48.092;-1.640;2023-12-29T12:51:14;6.82;;;1.52;;
74926;SDS011;63488;48.092;-1.640;2023-12-29T12:53:40;8.35;;;2.08;;
74926;SDS011;63488;48.092;-1.640;2023-12-29T12:56:06;6.47;;;1.55;;
74926;SDS011;63488;48.092;-1.640;2023-12-29T12:58:32;7.25;;;1.38;;
74926;SDS011;63488;48.092;-1.640;2023-12-29T13:00:57;8.57;;;1.60;;
74926;SDS011;63488;48.092;-1.640;2023-12-29T13:03:23;9.57;;;1.52;;
74926;SDS011;63488;48.092;-1.640;2023-12-29T13:05:48;8.95;;;1.98;;
74926;SDS011;63488;48.092;-1.640;2023-12-29T13:08:16;9.55;;;1.45;;
74926;SDS011;63488;48.092;-1.640;2023-12-29T13:10:41;9.02;;;1.70;;
74926;SDS011;63488;48.092;-1.640;2023-12-29T13:13:10;6.25;;;1.20;;
74926;SDS011;63488;48.092;-1.640;2023-12-29T13:15:44;6.45;;;1.60;;
74926;SDS011;63488;48.092;-1.640;2023-12-29T13:18:10;7.95;;;1.48;;
74926;SDS011;63488;48.092;-1.640;2023-12-29T13:20:48;7.18;;;1.33;;
74926;SDS011;63488;48.092;-1.640;2023-12-29T13:23:14;8.50;;;1.75;;
74926;SDS011;63488;48.092;-1.640;2023-12-29T13:25:40;10.98;;;1.67;;
74926;SDS011;63488;48.092;-1.640;2023-12-29T13:28:08;9.02;;;1.85;;
74926;SDS011;63488;48.092;-1.640;2023-12-29T13:30:33;8.68;;;1.83;;
74926;SDS011;63488;48.092;-1.640;2023-12-29T13:32:59;9.40;;;1.67;;
74926;SDS011;63488;48.092;-1.640;2023-12-29T13:35:33;8.50;;;1.75;;
74926;SDS011;63488;48.092;-1.640;2023-12-29T13:40:28;6.93;;;1.58;;
74926;SDS011;63488;48.092;-1.640;2023-12-29T13:43:00;7.43;;;1.63;;
74926;SDS011;63488;48.092;-1.640;2023-12-29T13:45:26;10.60;;;1.90;;
74926;SDS011;63488;48.092;-1.640;2023-12-29T13:47:52;12.27;;;2.10;;
74926;SDS011;63488;48.092;-1.640;2023-12-29T13:50:18;9.43;;;1.80;;
74926;SDS011;63488;48.092;-1.640;2023-12-29T13:52:44;10.60;;;2.47;;
74926;SDS011;63488;48.092;-1.640;2023-12-29T13:55:09;7.63;;;2.17;;
74926;SDS011;63488;48.092;-1.640;2023-12-29T13:57:35;5.00;;;2.00;;
74926;SDS011;63488;48.092;-1.640;2023-12-29T14:00:16;6.32;;;1.67;;
74926;SDS011;63488;48.092;-1.640;2023-12-29T14:02:43;4.80;;;1.40;;
74926;SDS011;63488;48.092;-1.640;2023-12-29T14:05:19;4.13;;;1.23;;
74926;SDS011;63488;48.092;-1.640;2023-12-29T14:07:45;5.15;;;1.45;;
74926;SDS011;63488;48.092;-1.640;2023-12-29T14:10:12;3.50;;;1.13;;
74926;SDS011;63488;48.092;-1.640;2023-12-29T14:12:37;3.03;;;1.05;;
74926;SDS011;63488;48.092;-1.640;2023-12-29T14:15:06;3.95;;;0.80;;
74926;SDS011;63488;48.092;-1.640;2023-12-29T14:19:58;3.30;;;0.68;;
74926;SDS011;63488;48.092;-1.640;2023-12-29T14:22:29;5.57;;;1.00;;
74926;SDS011;63488;48.092;-1.640;2023-12-29T14:25:01;5.80;;;0.88;;
74926;SDS011;63488;48.092;-1.640;2023-12-29T14:27:27;7.90;;;1.38;;
74926;SDS011;63488;48.092;-1.640;2023-12-29T14:29:53;3.85;;;0.85;;
74926;SDS011;63488;48.092;-1.640;2023-12-29T14:32:18;4.32;;;1.00;;
74926;SDS011;63488;48.092;-1.640;2023-12-29T14:34:43;5.90;;;1.60;;
74926;SDS011;63488;48.092;-1.640;2023-12-29T14:37:15;4.10;;;1.30;;
74926;SDS011;63488;48.092;-1.640;2023-12-29T14:39:46;5.15;;;1.20;;
74926;SDS011;63488;48.092;-1.640;2023-12-29T14:42:11;6.60;;;1.45;;